Terminal Aerodrome Forecast
Issued by NWS

Home | Current Version | Previous Version | Text Only | Print | Product List | Glossary On
Versions: 1 2 3 4 5 6 7 8 9 10 11 12 13 14 15 16
000
FTAK31 PAJN 141736
TAFAPG
TAF
PAPG 141736Z 1418/1518 13008G18KT 6SM -RA BR OVC022 WS020/16040KT
      TEMPO 1418/1422 3SM RA BR BKN015 OVC020
     FM150000 21007KT 3SM -SHRA BR SCT015 OVC025
     FM150400 23007KT 4SM -SHRA BR OVC025
      AMD LTD TO CLD VIS AND WIND 1506/1515=

USA.gov is the U.S. government's official web portal to all federal, state and local government web resources and services.